createdAt,value
2022-08-03T00:00:24.164Z,21.17
2022-08-03T00:02:50.851Z,21.20
2022-08-03T00:05:17.357Z,21.28
2022-08-03T00:07:43.871Z,21.20
2022-08-03T00:10:12.611Z,21.20
2022-08-03T00:12:39.171Z,21.26
2022-08-03T00:15:10.391Z,21.23
2022-08-03T00:17:52.816Z,21.17
2022-08-03T00:20:21.435Z,21.13
2022-08-03T00:22:48.118Z,21.11
2022-08-03T00:25:14.749Z,21.16
2022-08-03T00:27:41.317Z,21.16
2022-08-03T00:30:08.322Z,21.02
2022-08-03T00:32:34.800Z,21.07
2022-08-03T00:35:07.927Z,21.09
2022-08-03T00:37:41.489Z,21.07
2022-08-03T00:40:11.547Z,20.96
2022-08-03T00:42:51.269Z,21.09
2022-08-03T00:45:18.860Z,20.94
2022-08-03T00:47:45.923Z,20.99
2022-08-03T00:50:13.397Z,20.96
2022-08-03T00:52:40.431Z,20.90
2022-08-03T00:55:07.196Z,20.83
2022-08-03T00:57:34.076Z,20.82
2022-08-03T01:00:00.896Z,20.96
2022-08-03T01:02:28.656Z,20.92
2022-08-03T01:04:56.117Z,20.83
2022-08-03T01:07:49.047Z,20.80
2022-08-03T01:10:19.663Z,20.86
2022-08-03T01:12:55.253Z,20.80
2022-08-03T01:15:46.380Z,20.79
2022-08-03T01:18:42.591Z,20.69
2022-08-03T01:21:21.797Z,20.49
2022-08-03T01:24:03.202Z,20.45
2022-08-03T01:26:29.615Z,20.46
2022-08-03T01:29:14.991Z,20.45
2022-08-03T01:32:58.316Z,20.61
2022-08-03T01:34:51.917Z,20.48
2022-08-03T01:37:24.963Z,20.56
2022-08-03T01:39:55.031Z,20.35
2022-08-03T01:42:24.288Z,20.31
2022-08-03T01:44:52.889Z,20.25
2022-08-03T01:47:22.341Z,20.35
2022-08-03T01:49:50.843Z,20.28
2022-08-03T01:52:19.651Z,20.29
2022-08-03T01:54:49.634Z,20.13
2022-08-03T01:57:17.557Z,20.18
2022-08-03T01:59:46.859Z,20.10
2022-08-03T02:02:32.896Z,20.05
2022-08-03T02:05:03.299Z,19.93
2022-08-03T02:07:31.558Z,19.88
2022-08-03T02:09:59.497Z,19.85
2022-08-03T02:12:28.695Z,19.90
2022-08-03T02:14:56.978Z,19.81
2022-08-03T02:17:39.304Z,19.76
2022-08-03T02:20:08.961Z,19.69
2022-08-03T02:22:36.132Z,19.64
2022-08-03T02:25:02.711Z,19.70
2022-08-03T02:27:31.683Z,19.66
2022-08-03T02:30:10.020Z,19.71
2022-08-03T02:32:39.441Z,19.69
2022-08-03T02:35:18.551Z,19.66
2022-08-03T02:37:51.917Z,19.50
2022-08-03T02:40:23.328Z,19.47
2022-08-03T02:42:53.555Z,19.46
2022-08-03T02:45:22.592Z,19.38
2022-08-03T02:47:54.191Z,19.43
2022-08-03T02:50:24.119Z,19.42
2022-08-03T02:52:52.220Z,19.29
2022-08-03T02:55:21.815Z,19.20
2022-08-03T02:57:49.885Z,19.34
2022-08-03T03:00:27.484Z,19.25
2022-08-03T03:02:58.036Z,19.41
2022-08-03T03:05:54.568Z,19.31
2022-08-03T03:08:18.790Z,19.31
2022-08-03T03:10:48.506Z,19.23
2022-08-03T03:13:22.253Z,19.43
2022-08-03T03:15:49.759Z,19.34
2022-08-03T03:18:22.110Z,19.34
2022-08-03T03:20:50.478Z,19.34
2022-08-03T03:23:17.749Z,19.38
2022-08-03T03:25:44.995Z,19.35
2022-08-03T03:28:11.630Z,19.41
2022-08-03T03:30:38.704Z,19.46
2022-08-03T03:33:05.296Z,19.32
2022-08-03T03:35:38.935Z,19.29
2022-08-03T03:38:06.869Z,19.39
2022-08-03T03:40:35.444Z,19.47
2022-08-03T03:43:02.842Z,19.57
2022-08-03T03:45:31.195Z,19.42
2022-08-03T03:48:00.272Z,19.56
2022-08-03T03:50:28.147Z,19.49
2022-08-03T03:52:54.695Z,19.35
2022-08-03T03:55:21.280Z,19.31
2022-08-03T03:57:47.858Z,19.28
2022-08-03T04:00:16.436Z,19.19
2022-08-03T04:02:43.396Z,19.16
2022-08-03T04:05:28.836Z,19.22
2022-08-03T04:08:34.356Z,19.18
2022-08-03T04:11:34.650Z,19.20
2022-08-03T04:14:06.399Z,19.22
2022-08-03T04:16:39.722Z,19.19
2022-08-03T04:19:13.957Z,19.22
2022-08-03T04:21:43.467Z,19.28
2022-08-03T04:24:13.493Z,19.31
2022-08-03T04:26:41.734Z,19.32
2022-08-03T04:29:10.995Z,19.36
2022-08-03T04:31:38.806Z,19.34
2022-08-03T04:34:05.518Z,19.60
2022-08-03T04:36:37.323Z,19.56
2022-08-03T04:39:06.666Z,19.52
2022-08-03T04:42:04.404Z,19.55
2022-08-03T04:44:28.180Z,19.50
2022-08-03T04:46:56.791Z,19.64
2022-08-03T04:49:25.394Z,19.63
2022-08-03T04:51:53.158Z,19.83
2022-08-03T04:54:19.701Z,19.76
2022-08-03T04:56:46.286Z,19.69
2022-08-03T04:59:13.725Z,19.80
2022-08-03T05:01:42.069Z,19.97
2022-08-03T05:04:09.012Z,19.85
2022-08-03T05:06:35.635Z,19.88
2022-08-03T05:09:02.610Z,19.80
2022-08-03T05:11:30.682Z,19.78
2022-08-03T05:13:57.176Z,19.81
2022-08-03T05:16:25.834Z,19.83
2022-08-03T05:18:52.334Z,19.83
2022-08-03T05:21:18.846Z,19.90
2022-08-03T05:23:45.393Z,19.98
2022-08-03T05:26:12.109Z,19.97
2022-08-03T05:28:39.170Z,20.03
2022-08-03T05:31:14.795Z,20.05
2022-08-03T05:33:41.291Z,20.04
2022-08-03T05:36:07.857Z,20.10
2022-08-03T05:38:35.512Z,20.13
2022-08-03T05:41:22.327Z,20.20
2022-08-03T05:43:55.160Z,20.29
2022-08-03T05:46:25.007Z,20.32
2022-08-03T05:48:51.486Z,20.45
2022-08-03T05:51:18.361Z,20.52
2022-08-03T05:53:45.201Z,20.63
2022-08-03T05:56:13.543Z,20.73
2022-08-03T05:58:48.143Z,20.79
2022-08-03T06:01:17.552Z,20.86
2022-08-03T06:03:45.898Z,20.99
2022-08-03T06:06:12.682Z,21.04
2022-08-03T06:08:40.291Z,21.20
2022-08-03T06:11:07.140Z,21.30
2022-08-03T06:13:33.663Z,21.32
2022-08-03T06:16:00.159Z,21.37
2022-08-03T06:18:26.684Z,21.45
2022-08-03T06:20:53.582Z,21.61
2022-08-03T06:23:22.034Z,21.58
2022-08-03T06:25:48.659Z,21.58
2022-08-03T06:28:42.523Z,21.62
2022-08-03T06:31:02.255Z,21.77
2022-08-03T06:34:31.477Z,21.85
2022-08-03T06:36:15.635Z,21.99
2022-08-03T06:38:42.145Z,22.10
2022-08-03T06:41:08.712Z,22.26
2022-08-03T06:43:37.762Z,22.39
2022-08-03T06:46:06.036Z,22.57
2022-08-03T06:48:32.681Z,22.54
2022-08-03T06:50:59.453Z,22.57
2022-08-03T06:53:26.154Z,22.64
2022-08-03T06:55:54.821Z,22.76
2022-08-03T06:58:22.279Z,22.78
2022-08-03T07:00:48.868Z,23.01
2022-08-03T07:03:15.591Z,23.08
2022-08-03T07:05:42.978Z,23.16
2022-08-03T07:08:10.198Z,23.26
2022-08-03T07:10:37.116Z,23.43
2022-08-03T07:13:04.278Z,23.45
2022-08-03T07:15:54.643Z,23.50
2022-08-03T07:18:17.704Z,23.58
2022-08-03T07:20:56.382Z,23.73
2022-08-03T07:23:22.858Z,23.87
2022-08-03T07:25:50.638Z,23.96
2022-08-03T07:28:17.214Z,23.92
2022-08-03T07:30:43.705Z,24.00
2022-08-03T07:33:10.230Z,24.10
2022-08-03T07:35:36.888Z,24.28
2022-08-03T07:38:03.449Z,24.14
2022-08-03T07:40:31.778Z,24.34
2022-08-03T07:42:58.880Z,24.40
2022-08-03T07:45:26.566Z,24.51
2022-08-03T07:47:54.116Z,24.65
2022-08-03T07:50:21.417Z,24.89
2022-08-03T07:52:48.524Z,25.00
2022-08-03T07:55:16.392Z,24.98
2022-08-03T07:57:44.008Z,25.22
2022-08-03T08:00:19.159Z,25.23
2022-08-03T08:02:46.066Z,25.29
2022-08-03T08:05:12.737Z,25.46
2022-08-03T08:07:39.706Z,26.80
2022-08-03T08:10:08.458Z,27.75
2022-08-03T08:12:35.005Z,28.37
2022-08-03T08:15:02.065Z,28.50
2022-08-03T08:17:28.638Z,29.83
2022-08-03T08:19:55.160Z,28.65
2022-08-03T08:22:30.216Z,29.08
2022-08-03T08:24:58.161Z,29.54
2022-08-03T08:27:24.674Z,29.77
2022-08-03T08:29:54.526Z,28.47
2022-08-03T08:32:24.204Z,28.51
2022-08-03T08:34:51.025Z,29.00
2022-08-03T08:37:17.709Z,28.91
2022-08-03T08:39:44.220Z,28.39
2022-08-03T08:42:10.703Z,28.91
2022-08-03T08:44:37.246Z,29.40
2022-08-03T08:47:04.361Z,29.19
2022-08-03T08:49:33.052Z,30.18
2022-08-03T08:52:01.405Z,30.79
2022-08-03T08:54:29.625Z,30.14
2022-08-03T08:57:01.519Z,30.73
2022-08-03T08:59:49.009Z,30.31
2022-08-03T09:02:15.211Z,30.34
2022-08-03T09:04:42.380Z,31.68
2022-08-03T09:07:20.086Z,31.95
2022-08-03T09:10:10.048Z,31.06
2022-08-03T09:12:47.255Z,30.23
2022-08-03T09:15:34.790Z,30.44
2022-08-03T09:18:03.715Z,31.29
2022-08-03T09:20:32.847Z,31.19
2022-08-03T09:23:24.706Z,30.75
2022-08-03T09:25:58.224Z,30.52
2022-08-03T09:28:58.154Z,30.01
2022-08-03T09:31:30.160Z,30.00
2022-08-03T09:34:00.995Z,30.46
2022-08-03T09:36:37.233Z,30.83
2022-08-03T09:39:06.464Z,30.87
2022-08-03T09:41:33.899Z,31.33
2022-08-03T09:44:00.542Z,31.68
2022-08-03T09:46:31.678Z,31.87
2022-08-03T09:49:12.588Z,31.94
2022-08-03T09:52:31.977Z,31.31
2022-08-03T09:54:28.705Z,31.78
2022-08-03T09:56:56.677Z,31.62
2022-08-03T09:59:26.129Z,31.04
2022-08-03T10:01:52.981Z,31.20
2022-08-03T10:04:19.642Z,32.60
2022-08-03T10:07:01.563Z,34.10
2022-08-03T10:09:28.130Z,34.37
2022-08-03T10:11:54.955Z,34.30
2022-08-03T10:14:23.396Z,33.07
2022-08-03T10:16:50.144Z,32.87
2022-08-03T10:19:17.633Z,31.89
2022-08-03T10:21:51.192Z,32.90
2022-08-03T10:24:24.261Z,33.47
2022-08-03T10:26:51.618Z,35.15
2022-08-03T10:29:22.774Z,35.75
2022-08-03T10:31:57.635Z,33.82
2022-08-03T10:34:29.168Z,32.57
2022-08-03T10:36:58.842Z,32.19
2022-08-03T10:39:29.213Z,31.99
2022-08-03T10:41:58.729Z,32.33
2022-08-03T10:44:39.174Z,32.83
2022-08-03T10:47:06.128Z,32.08
2022-08-03T10:49:34.788Z,32.65
2022-08-03T10:52:10.386Z,33.61
2022-08-03T10:55:01.135Z,34.94
2022-08-03T10:57:45.784Z,34.68
2022-08-03T11:00:22.334Z,36.48
2022-08-03T11:03:01.343Z,35.79
2022-08-03T11:05:29.143Z,38.17
2022-08-03T11:08:17.485Z,34.37
2022-08-03T11:10:44.266Z,33.71
2022-08-03T11:13:16.903Z,34.84
2022-08-03T11:15:48.771Z,33.33
2022-08-03T11:18:17.249Z,33.44
2022-08-03T11:20:53.878Z,35.96
2022-08-03T11:24:03.034Z,34.98
2022-08-03T11:26:28.665Z,35.58
2022-08-03T11:29:28.757Z,34.95
2022-08-03T11:31:55.369Z,35.49
2022-08-03T11:34:21.933Z,34.56
2022-08-03T11:37:21.676Z,34.56
2022-08-03T11:39:51.526Z,35.54
2022-08-03T11:42:23.925Z,34.90
2022-08-03T11:44:51.601Z,35.59
2022-08-03T11:47:18.445Z,36.97
2022-08-03T11:49:49.267Z,38.51
2022-08-03T11:52:17.859Z,38.33
2022-08-03T11:54:44.591Z,35.89
2022-08-03T11:57:11.639Z,35.93
2022-08-03T11:59:38.840Z,35.28
2022-08-03T12:02:08.997Z,36.92
2022-08-03T12:05:01.286Z,34.46
2022-08-03T12:08:03.046Z,34.19
2022-08-03T12:10:16.059Z,36.06
2022-08-03T12:12:46.832Z,37.24
2022-08-03T12:15:13.606Z,37.79
2022-08-03T12:17:41.685Z,35.92
2022-08-03T12:20:21.671Z,37.65
2022-08-03T12:23:08.099Z,38.12
2022-08-03T12:25:39.265Z,36.68
2022-08-03T12:28:36.719Z,36.30
2022-08-03T12:31:09.470Z,36.24
2022-08-03T12:34:12.383Z,35.59
2022-08-03T12:36:49.602Z,34.70
2022-08-03T12:39:16.259Z,36.43
2022-08-03T12:41:43.088Z,37.65
2022-08-03T12:44:09.828Z,36.77
2022-08-03T12:46:46.931Z,36.53
2022-08-03T12:49:17.125Z,36.16
2022-08-03T12:51:43.666Z,37.26
2022-08-03T12:54:17.486Z,37.19
2022-08-03T12:57:15.847Z,36.53
2022-08-03T12:59:53.573Z,36.46
2022-08-03T13:02:23.598Z,35.10
2022-08-03T13:04:51.667Z,35.00
2022-08-03T13:07:19.525Z,35.41
2022-08-03T13:09:55.596Z,35.58
2022-08-03T13:12:24.608Z,35.52
2022-08-03T13:14:53.295Z,37.42
2022-08-03T13:17:20.158Z,37.66
2022-08-03T13:19:48.918Z,37.68
2022-08-03T13:22:16.787Z,36.53
2022-08-03T13:24:44.733Z,36.23
2022-08-03T13:27:58.875Z,36.16
2022-08-03T13:29:59.051Z,35.96
2022-08-03T13:32:25.647Z,35.62
2022-08-03T13:34:52.184Z,36.87
2022-08-03T13:37:18.966Z,36.27
2022-08-03T13:39:57.707Z,35.93
2022-08-03T13:42:29.488Z,35.71
2022-08-03T13:44:56.130Z,35.81
2022-08-03T13:47:22.878Z,36.53
2022-08-03T13:49:59.703Z,37.24
2022-08-03T13:52:32.415Z,36.77
2022-08-03T13:54:59.896Z,37.62
2022-08-03T13:58:02.348Z,38.66
2022-08-03T14:00:27.044Z,38.97
2022-08-03T14:03:02.861Z,38.74
2022-08-03T14:05:34.453Z,37.70
2022-08-03T14:08:04.538Z,37.79
2022-08-03T14:10:36.435Z,38.77
2022-08-03T14:13:04.088Z,38.48
2022-08-03T14:15:31.183Z,38.20
2022-08-03T14:17:58.635Z,37.78
2022-08-03T14:20:38.960Z,39.09
2022-08-03T14:23:14.356Z,38.36
2022-08-03T14:25:51.596Z,36.78
2022-08-03T14:28:20.064Z,37.36
2022-08-03T14:30:46.631Z,38.37
2022-08-03T14:33:13.109Z,37.90
2022-08-03T14:35:39.932Z,37.63
2022-08-03T14:38:06.618Z,36.47
2022-08-03T14:40:33.168Z,36.84
2022-08-03T14:42:59.690Z,38.09
2022-08-03T14:45:26.182Z,37.35
2022-08-03T14:50:30.174Z,36.78
2022-08-03T14:50:43.169Z,36.84
2022-08-03T14:53:12.360Z,37.43
2022-08-03T14:55:49.556Z,37.49
2022-08-03T14:58:20.125Z,38.03
2022-08-03T15:00:47.587Z,38.38
2022-08-03T15:03:16.771Z,38.00
2022-08-03T15:05:44.203Z,38.13
2022-08-03T15:08:10.811Z,38.16
2022-08-03T15:10:40.555Z,38.97
2022-08-03T15:13:11.376Z,39.41
2022-08-03T15:15:37.882Z,39.26
2022-08-03T15:18:04.577Z,38.57
2022-08-03T15:20:43.411Z,39.46
2022-08-03T15:23:11.874Z,40.52
2022-08-03T15:26:28.121Z,40.50
2022-08-03T15:28:25.225Z,39.94
2022-08-03T15:30:53.780Z,39.93
2022-08-03T15:33:20.515Z,39.08
2022-08-03T15:35:47.852Z,38.61
2022-08-03T15:38:14.712Z,37.51
2022-08-03T15:40:41.832Z,37.34
2022-08-03T15:43:08.447Z,38.15
2022-08-03T15:45:36.125Z,38.09
2022-08-03T15:48:04.076Z,37.25
2022-08-03T15:50:30.633Z,37.21
2022-08-03T15:52:57.234Z,38.04
2022-08-03T15:55:23.865Z,38.06
2022-08-03T15:59:04.204Z,37.32
2022-08-03T16:00:38.679Z,36.57
2022-08-03T16:03:05.454Z,35.96
2022-08-03T16:05:32.487Z,35.73
2022-08-03T16:08:04.201Z,35.39
2022-08-03T16:10:31.782Z,36.02
2022-08-03T16:13:00.196Z,36.54
2022-08-03T16:15:27.370Z,36.48
2022-08-03T16:17:54.016Z,36.67
2022-08-03T16:20:31.711Z,36.77
2022-08-03T16:23:10.823Z,37.53
2022-08-03T16:25:42.474Z,37.92
2022-08-03T16:28:13.780Z,36.71
2022-08-03T16:30:44.839Z,36.80
2022-08-03T16:33:17.018Z,36.58
2022-08-03T16:35:44.797Z,36.51
2022-08-03T16:38:14.184Z,36.06
2022-08-03T16:40:45.812Z,36.09
2022-08-03T16:43:18.916Z,36.61
2022-08-03T16:45:46.775Z,36.53
2022-08-03T16:48:14.124Z,36.44
2022-08-03T16:50:40.946Z,35.75
2022-08-03T16:53:09.281Z,36.03
2022-08-03T16:55:48.433Z,35.72
2022-08-03T16:58:19.545Z,35.37
2022-08-03T17:01:01.770Z,35.08
2022-08-03T17:04:02.444Z,34.78
2022-08-03T17:06:34.132Z,34.39
2022-08-03T17:09:01.350Z,34.82
2022-08-03T17:11:29.713Z,34.87
2022-08-03T17:13:58.689Z,34.60
2022-08-03T17:16:25.424Z,35.10
2022-08-03T17:18:58.019Z,35.20
2022-08-03T17:21:31.265Z,34.94
2022-08-03T17:24:27.247Z,35.23
2022-08-03T17:26:55.017Z,34.63
2022-08-03T17:29:25.166Z,34.43
2022-08-03T17:31:52.990Z,34.53
2022-08-03T17:34:20.927Z,34.59
2022-08-03T17:37:27.147Z,34.67
2022-08-03T17:39:59.843Z,34.68
2022-08-03T17:42:31.044Z,34.78
2022-08-03T17:47:57.288Z,34.45
2022-08-03T17:50:34.250Z,34.71
2022-08-03T17:53:15.577Z,34.40
2022-08-03T17:56:38.736Z,34.43
2022-08-03T17:59:16.353Z,33.81
2022-08-03T18:05:15.947Z,33.13
2022-08-03T18:07:50.850Z,32.88
2022-08-03T18:10:33.649Z,32.66
2022-08-03T18:13:04.304Z,32.35
2022-08-03T18:15:46.406Z,32.42
2022-08-03T18:18:16.468Z,32.46
2022-08-03T18:20:56.770Z,32.25
2022-08-03T18:23:36.952Z,32.33
2022-08-03T18:26:07.677Z,32.12
2022-08-03T18:28:40.498Z,31.89
2022-08-03T18:31:10.076Z,31.98
2022-08-03T18:34:17.262Z,32.13
2022-08-03T18:36:30.108Z,31.89
2022-08-03T18:38:58.688Z,31.71
2022-08-03T18:41:33.594Z,31.55
2022-08-03T18:44:08.221Z,31.44
2022-08-03T18:47:16.488Z,31.31
2022-08-03T18:49:58.796Z,31.16
2022-08-03T18:52:45.815Z,30.99
2022-08-03T18:55:35.533Z,31.00
2022-08-03T18:58:15.850Z,30.93
2022-08-03T19:02:00.003Z,30.99
2022-08-03T19:04:45.986Z,30.73
2022-08-03T19:07:18.005Z,30.59
2022-08-03T19:09:54.626Z,30.51
2022-08-03T19:12:52.088Z,30.32
2022-08-03T19:15:21.242Z,30.35
2022-08-03T19:18:08.764Z,30.23
2022-08-03T19:20:37.766Z,30.07
2022-08-03T19:23:04.413Z,30.01
2022-08-03T19:25:40.310Z,29.93
2022-08-03T19:28:08.714Z,29.91
2022-08-03T19:30:39.083Z,29.87
2022-08-03T19:33:13.941Z,29.72
2022-08-03T19:35:54.784Z,29.60
2022-08-03T19:38:35.663Z,29.54
2022-08-03T19:41:04.105Z,29.59
2022-08-03T19:43:52.580Z,29.50
2022-08-03T19:46:30.405Z,29.35
2022-08-03T19:49:10.584Z,29.36
2022-08-03T19:52:01.248Z,29.11
2022-08-03T19:54:45.767Z,29.07
2022-08-03T19:57:24.326Z,28.96
2022-08-03T19:59:52.472Z,28.92
2022-08-03T20:02:27.125Z,28.87
2022-08-03T20:05:00.014Z,28.89
2022-08-03T20:07:29.365Z,28.89
2022-08-03T20:09:57.150Z,28.74
2022-08-03T20:12:26.629Z,28.57
2022-08-03T20:14:56.780Z,28.48
2022-08-03T20:17:23.354Z,28.41
2022-08-03T20:20:11.007Z,28.43
2022-08-03T20:22:43.042Z,28.29
2022-08-03T20:25:16.292Z,28.24
2022-08-03T20:28:07.297Z,28.10
2022-08-03T20:30:37.612Z,28.12
2022-08-03T20:33:04.653Z,28.02
2022-08-03T20:35:32.522Z,27.99
2022-08-03T20:38:00.105Z,28.06
2022-08-03T20:40:27.533Z,28.03
2022-08-03T20:42:55.720Z,27.94
2022-08-03T20:45:59.367Z,27.86
2022-08-03T20:48:10.112Z,27.83
2022-08-03T20:50:38.749Z,27.71
2022-08-03T20:53:07.136Z,27.61
2022-08-03T20:55:47.783Z,27.59
2022-08-03T20:58:23.717Z,27.52
2022-08-03T21:00:51.435Z,27.38
2022-08-03T21:03:18.763Z,27.30
2022-08-03T21:05:51.824Z,27.27
2022-08-03T21:08:22.624Z,27.21
2022-08-03T21:10:52.937Z,27.34
2022-08-03T21:12:56.490Z,33.30
2022-08-03T21:13:05.061Z,34.53
2022-08-03T21:13:37.352Z,27.20
2022-08-03T21:16:14.008Z,27.17
2022-08-03T21:18:52.838Z,26.97
2022-08-03T21:21:23.263Z,26.97
2022-08-03T21:23:54.544Z,26.94
2022-08-03T21:26:24.770Z,26.94
2022-08-03T21:28:55.501Z,26.86
2022-08-03T21:31:25.577Z,26.72
2022-08-03T21:34:04.752Z,26.70
2022-08-03T21:36:34.315Z,26.65
2022-08-03T21:39:02.747Z,26.55
2022-08-03T21:41:32.143Z,26.70
2022-08-03T21:44:00.675Z,26.70
2022-08-03T21:46:31.378Z,26.60
2022-08-03T21:50:04.515Z,26.55
2022-08-03T21:51:52.150Z,26.50
2022-08-03T21:54:20.863Z,26.46
2022-08-03T21:56:48.168Z,26.53
2022-08-03T21:59:18.137Z,26.50
2022-08-03T22:01:49.314Z,26.37
2022-08-03T22:04:51.048Z,26.35
2022-08-03T22:07:07.854Z,26.24
2022-08-03T22:09:35.610Z,26.24
2022-08-03T22:12:02.340Z,26.22
2022-08-03T22:14:32.283Z,26.16
2022-08-03T22:17:00.050Z,26.24
2022-08-03T22:19:26.559Z,26.12
2022-08-03T22:21:54.374Z,26.16
2022-08-03T22:24:25.075Z,26.31
2022-08-03T22:27:10.094Z,26.07
2022-08-03T22:29:39.626Z,25.95
2022-08-03T22:32:06.690Z,25.88
2022-08-03T22:34:33.510Z,25.85
2022-08-03T22:37:03.286Z,25.81
2022-08-03T22:39:30.769Z,25.73
2022-08-03T22:41:58.897Z,25.80
2022-08-03T22:44:27.043Z,25.74
2022-08-03T22:46:53.899Z,25.81
2022-08-03T22:49:20.830Z,25.70
2022-08-03T22:51:47.471Z,25.77
2022-08-03T22:54:15.027Z,25.71
2022-08-03T22:56:41.925Z,25.77
2022-08-03T22:59:40.698Z,25.60
2022-08-03T23:02:01.975Z,25.51
2022-08-03T23:04:44.360Z,25.51
2022-08-03T23:07:22.681Z,25.49
2022-08-03T23:09:49.639Z,25.37
2022-08-03T23:12:19.181Z,25.43
2022-08-03T23:14:55.320Z,25.47
2022-08-03T23:17:23.752Z,25.31
2022-08-03T23:19:52.651Z,25.29
2022-08-03T23:22:30.024Z,25.24
2022-08-03T23:24:58.476Z,25.06
2022-08-03T23:27:27.265Z,25.13
2022-08-03T23:29:54.231Z,25.12
2022-08-03T23:32:21.249Z,25.06
2022-08-03T23:35:08.774Z,25.00
2022-08-03T23:38:21.566Z,24.98
2022-08-03T23:40:24.995Z,24.89
2022-08-03T23:42:52.194Z,24.88
2022-08-03T23:45:20.392Z,24.86
2022-08-03T23:47:50.120Z,24.83
2022-08-03T23:50:17.533Z,24.85
2022-08-03T23:52:57.700Z,24.75
2022-08-03T23:56:09.904Z,24.68
2022-08-03T23:59:04.157Z,24.65
